createdAt,value
2023-03-25T00:01:34.373Z,98.35
2023-03-25T00:04:39.639Z,98.13
2023-03-25T00:07:41.580Z,98.12
2023-03-25T00:10:44.502Z,97.46
2023-03-25T00:13:46.213Z,97.04
2023-03-25T00:16:48.662Z,97.07
2023-03-25T00:19:53.268Z,97.35
2023-03-25T00:22:54.919Z,96.54
2023-03-25T00:26:01.153Z,96.93
2023-03-25T00:29:03.796Z,97.34
2023-03-25T00:32:05.920Z,96.54
2023-03-25T00:35:10.670Z,96.30
2023-03-25T00:38:12.339Z,96.70
2023-03-25T00:41:23.264Z,96.88
2023-03-25T00:44:25.201Z,96.46
2023-03-25T00:47:27.190Z,96.52
2023-03-25T00:50:28.830Z,96.40
2023-03-25T00:53:30.551Z,98.22
2023-03-25T00:56:33.846Z,99.14
2023-03-25T00:59:36.221Z,100.00
2023-03-25T01:02:39.607Z,100.00
2023-03-25T01:05:41.678Z,100.00
2023-03-25T01:08:44.037Z,100.00
2023-03-25T01:11:47.863Z,100.00
2023-03-25T01:14:51.102Z,100.00
2023-03-25T01:17:52.706Z,100.00
2023-03-25T01:20:54.325Z,100.00
2023-03-25T01:23:56.428Z,100.00
2023-03-25T01:26:59.351Z,100.00
2023-03-25T01:30:02.918Z,100.00
2023-03-25T01:33:04.467Z,100.00
2023-03-25T01:36:09.866Z,100.00
2023-03-25T01:39:11.585Z,100.00
2023-03-25T01:42:14.567Z,100.00
2023-03-25T01:45:23.926Z,100.00
2023-03-25T01:48:28.864Z,100.00
2023-03-25T01:51:32.517Z,100.00
2023-03-25T01:54:34.563Z,100.00
2023-03-25T01:57:40.590Z,100.00
2023-03-25T02:00:47.728Z,100.00
2023-03-25T02:03:52.347Z,100.00
2023-03-25T02:06:55.767Z,100.00
2023-03-25T02:09:58.433Z,100.00
2023-03-25T02:13:01.579Z,100.00
2023-03-25T02:16:11.213Z,100.00
2023-03-25T02:19:25.041Z,100.00
2023-03-25T02:22:51.077Z,100.00
2023-03-25T02:26:05.337Z,100.00
2023-03-25T02:29:13.501Z,100.00
2023-03-25T02:32:21.230Z,100.00
2023-03-25T02:35:30.012Z,100.00
2023-03-25T02:38:36.774Z,100.00
2023-03-25T02:41:42.388Z,100.00
2023-03-25T02:44:49.111Z,100.00
2023-03-25T02:47:54.522Z,100.00
2023-03-25T02:50:58.176Z,100.00
2023-03-25T02:54:03.264Z,100.00
2023-03-25T03:00:20.419Z,100.00
2023-03-25T03:03:22.129Z,100.00
2023-03-25T03:06:24.773Z,100.00
2023-03-25T03:09:33.737Z,100.00
2023-03-25T03:12:40.834Z,100.00
2023-03-25T03:15:46.300Z,100.00
2023-03-25T03:18:52.044Z,100.00
2023-03-25T03:21:56.687Z,100.00
2023-03-25T03:25:01.911Z,100.00
2023-03-25T03:28:05.859Z,100.00
2023-03-25T03:31:10.668Z,100.00
2023-03-25T03:34:15.636Z,100.00
2023-03-25T03:37:19.664Z,100.00
2023-03-25T03:40:23.500Z,100.00
2023-03-25T03:43:26.320Z,100.00
2023-03-25T03:46:31.136Z,100.00
2023-03-25T03:49:35.388Z,100.00
2023-03-25T03:52:40.261Z,100.00
2023-03-25T03:55:46.347Z,100.00
2023-03-25T03:58:50.459Z,100.00
2023-03-25T04:01:56.102Z,100.00
2023-03-25T04:05:00.881Z,100.00
2023-03-25T04:08:04.461Z,100.00
2023-03-25T04:11:10.266Z,100.00
2023-03-25T04:14:13.561Z,100.00
2023-03-25T04:17:15.107Z,100.00
2023-03-25T04:20:23.933Z,100.00
2023-03-25T04:23:26.118Z,100.00
2023-03-25T04:26:34.336Z,100.00
2023-03-25T04:29:36.229Z,100.00
2023-03-25T04:32:38.017Z,100.00
2023-03-25T04:35:40.636Z,100.00
2023-03-25T04:38:45.982Z,100.00
2023-03-25T04:41:49.818Z,100.00
2023-03-25T04:44:51.415Z,100.00
2023-03-25T04:47:54.803Z,100.00
2023-03-25T04:50:57.910Z,100.00
2023-03-25T04:53:59.575Z,100.00
2023-03-25T04:57:03.004Z,100.00
2023-03-25T05:00:06.612Z,100.00
2023-03-25T05:03:09.848Z,100.00
2023-03-25T05:06:11.704Z,100.00
2023-03-25T05:09:16.250Z,100.00
2023-03-25T05:12:19.117Z,100.00
2023-03-25T05:15:20.945Z,100.00
2023-03-25T05:18:22.683Z,100.00
2023-03-25T05:21:24.434Z,100.00
2023-03-25T05:24:26.289Z,100.00
2023-03-25T05:27:30.314Z,100.00
2023-03-25T05:30:32.605Z,100.00
2023-03-25T05:33:34.697Z,100.00
2023-03-25T05:36:39.109Z,100.00
2023-03-25T05:39:40.954Z,100.00
2023-03-25T05:42:47.169Z,100.00
2023-03-25T05:45:49.216Z,100.00
2023-03-25T05:48:51.358Z,100.00
2023-03-25T05:51:54.236Z,100.00
2023-03-25T05:54:56.048Z,100.00
2023-03-25T05:57:59.275Z,100.00
2023-03-25T06:01:03.061Z,100.00
2023-03-25T06:04:05.043Z,100.00
2023-03-25T06:07:09.219Z,100.00
2023-03-25T06:10:10.970Z,99.83
2023-03-25T06:13:13.953Z,99.25
2023-03-25T06:16:19.493Z,99.13
2023-03-25T06:19:21.034Z,100.00
2023-03-25T06:22:22.588Z,99.99
2023-03-25T06:25:24.397Z,100.00
2023-03-25T06:28:27.637Z,100.00
2023-03-25T06:31:33.404Z,100.00
2023-03-25T06:34:35.486Z,99.66
2023-03-25T06:37:37.951Z,100.00
2023-03-25T06:40:44.770Z,100.00
2023-03-25T06:43:48.227Z,100.00
2023-03-25T06:47:25.466Z,100.00
2023-03-25T06:50:27.659Z,100.00
2023-03-25T06:53:29.451Z,100.00
2023-03-25T06:56:31.371Z,99.66
2023-03-25T06:59:34.358Z,100.00
2023-03-25T07:02:36.277Z,100.00
2023-03-25T07:05:38.177Z,100.00
2023-03-25T07:08:40.275Z,100.00
2023-03-25T07:11:41.881Z,100.00
2023-03-25T07:14:50.259Z,100.00
2023-03-25T07:21:12.808Z,100.00
2023-03-25T07:24:14.337Z,100.00
2023-03-25T07:27:15.958Z,100.00
2023-03-25T07:30:25.743Z,100.00
2023-03-25T07:33:27.281Z,100.00
2023-03-25T07:36:29.045Z,100.00
2023-03-25T07:39:30.788Z,100.00
2023-03-25T07:42:36.011Z,100.00
2023-03-25T07:45:51.640Z,100.00
2023-03-25T07:48:53.401Z,100.00
2023-03-25T07:51:55.282Z,100.00
2023-03-25T07:54:57.210Z,100.00
2023-03-25T07:58:01.165Z,100.00
2023-03-25T08:01:04.929Z,100.00
2023-03-25T08:04:06.614Z,100.00
2023-03-25T08:07:08.262Z,100.00
2023-03-25T08:10:10.323Z,100.00
2023-03-25T08:13:12.694Z,100.00
2023-03-25T08:16:15.821Z,100.00
2023-03-25T08:19:17.429Z,100.00
2023-03-25T08:22:19.120Z,100.00
2023-03-25T08:25:21.019Z,100.00
2023-03-25T08:28:23.733Z,100.00
2023-03-25T08:31:31.237Z,100.00
2023-03-25T08:34:39.880Z,100.00
2023-03-25T08:37:41.785Z,100.00
2023-03-25T08:40:44.137Z,100.00
2023-03-25T08:43:45.990Z,100.00
2023-03-25T08:46:49.269Z,100.00
2023-03-25T08:49:50.881Z,100.00
2023-03-25T08:52:54.712Z,100.00
2023-03-25T08:55:57.800Z,100.00
2023-03-25T08:58:59.456Z,98.37
2023-03-25T09:02:02.496Z,99.13
2023-03-25T09:05:04.539Z,97.40
2023-03-25T09:08:07.197Z,96.94
2023-03-25T09:11:09.053Z,95.61
2023-03-25T09:14:10.676Z,94.56
2023-03-25T09:17:13.727Z,95.02
2023-03-25T09:20:15.457Z,95.22
2023-03-25T09:23:17.067Z,97.08
2023-03-25T09:26:18.698Z,94.70
2023-03-25T09:29:20.262Z,93.70
2023-03-25T09:32:23.378Z,93.79
2023-03-25T09:35:25.121Z,95.32
2023-03-25T09:38:27.278Z,93.83
2023-03-25T09:41:43.355Z,91.41
2023-03-25T09:44:52.435Z,93.61
2023-03-25T09:47:58.160Z,94.67
2023-03-25T09:51:02.845Z,92.66
2023-03-25T09:54:13.088Z,92.15
2023-03-25T09:57:18.373Z,89.94
2023-03-25T10:00:22.642Z,92.91
2023-03-25T10:03:29.155Z,93.40
2023-03-25T10:06:32.383Z,91.58
2023-03-25T10:09:39.191Z,91.31
2023-03-25T10:12:44.455Z,91.07
2023-03-25T10:15:50.296Z,88.70
2023-03-25T10:18:59.606Z,87.53
2023-03-25T10:22:03.942Z,84.60
2023-03-25T10:25:11.064Z,83.28
2023-03-25T10:28:16.515Z,83.96
2023-03-25T10:31:20.646Z,83.92
2023-03-25T10:34:29.709Z,84.40
2023-03-25T10:37:32.530Z,83.45
2023-03-25T10:40:36.429Z,85.46
2023-03-25T10:43:39.519Z,84.65
2023-03-25T10:46:47.909Z,85.15
2023-03-25T10:49:52.457Z,85.03
2023-03-25T10:52:56.676Z,84.28
2023-03-25T10:55:59.525Z,83.76
2023-03-25T10:59:04.366Z,83.82
2023-03-25T11:02:12.673Z,85.46
2023-03-25T11:05:18.996Z,83.34
2023-03-25T11:08:25.565Z,80.85
2023-03-25T11:11:32.265Z,82.53
2023-03-25T11:14:36.945Z,83.59
2023-03-25T11:17:39.783Z,84.81
2023-03-25T11:20:53.786Z,88.10
2023-03-25T11:23:55.709Z,87.17
2023-03-25T11:26:57.591Z,89.13
2023-03-25T11:30:01.403Z,89.08
2023-03-25T11:33:04.995Z,86.57
2023-03-25T11:36:12.411Z,87.60
2023-03-25T11:39:19.540Z,86.56
2023-03-25T11:42:28.975Z,86.20
2023-03-25T11:45:35.636Z,86.34
2023-03-25T11:48:40.478Z,85.26
2023-03-25T11:51:44.414Z,86.72
2023-03-25T11:54:46.237Z,88.95
2023-03-25T11:57:49.544Z,87.38
2023-03-25T12:00:53.632Z,89.55
2023-03-25T12:04:05.906Z,88.25
2023-03-25T12:07:15.470Z,87.24
2023-03-25T12:10:18.889Z,87.17
2023-03-25T12:13:29.828Z,87.33
2023-03-25T12:16:37.630Z,85.85
2023-03-25T12:19:45.898Z,86.83
2023-03-25T12:22:55.623Z,88.01
2023-03-25T12:26:01.294Z,87.83
2023-03-25T12:29:17.566Z,87.28
2023-03-25T12:32:30.126Z,86.55
2023-03-25T12:35:36.335Z,87.11
2023-03-25T12:38:45.787Z,84.79
2023-03-25T12:41:54.616Z,86.26
2023-03-25T12:45:11.098Z,87.26
2023-03-25T12:48:19.431Z,87.52
2023-03-25T12:51:25.684Z,88.62
2023-03-25T12:54:34.590Z,88.72
2023-03-25T12:57:44.338Z,89.77
2023-03-25T13:00:52.815Z,89.18
2023-03-25T13:04:07.543Z,88.87
2023-03-25T13:07:11.748Z,89.64
2023-03-25T13:10:20.270Z,89.40
2023-03-25T13:13:24.313Z,91.09
2023-03-25T13:16:28.028Z,91.66
2023-03-25T13:19:32.573Z,92.49
2023-03-25T13:22:37.183Z,93.18
2023-03-25T13:25:47.721Z,94.67
2023-03-25T13:28:51.767Z,97.68
2023-03-25T13:31:54.038Z,96.26
2023-03-25T13:34:57.501Z,96.36
2023-03-25T13:38:01.306Z,95.00
2023-03-25T13:41:08.561Z,97.92
2023-03-25T13:44:12.445Z,95.03
2023-03-25T13:47:18.058Z,94.68
2023-03-25T13:50:24.506Z,95.75
2023-03-25T13:53:29.376Z,96.21
2023-03-25T13:56:49.898Z,95.28
2023-03-25T14:00:06.387Z,96.49
2023-03-25T14:03:27.409Z,96.92
2023-03-25T14:06:37.601Z,99.57
2023-03-25T14:09:57.145Z,100.00
2023-03-25T14:12:59.831Z,100.00
2023-03-25T14:16:04.189Z,100.00
2023-03-25T14:19:11.951Z,100.00
2023-03-25T14:25:29.224Z,100.00
2023-03-25T14:28:37.532Z,100.00
2023-03-25T14:31:39.176Z,100.00
2023-03-25T14:34:42.448Z,100.00
2023-03-25T14:37:44.087Z,97.56
2023-03-25T14:41:02.127Z,97.66
2023-03-25T14:44:33.399Z,97.58
2023-03-25T14:47:37.089Z,97.02
2023-03-25T14:50:40.981Z,97.72
2023-03-25T14:53:49.750Z,97.82
2023-03-25T14:56:57.697Z,97.98
2023-03-25T15:00:02.025Z,99.31
2023-03-25T15:03:05.417Z,97.25
2023-03-25T15:06:09.762Z,99.59
2023-03-25T15:09:13.139Z,100.00
2023-03-25T15:12:16.695Z,100.00
2023-03-25T15:15:26.209Z,97.28
2023-03-25T15:18:49.498Z,98.03
2023-03-25T15:22:11.397Z,93.95
2023-03-25T15:25:16.871Z,92.96
2023-03-25T15:28:22.603Z,90.09
2023-03-25T15:31:29.491Z,96.11
2023-03-25T15:34:41.621Z,99.54
2023-03-25T15:37:59.380Z,100.00
2023-03-25T15:41:10.777Z,100.00
2023-03-25T15:44:24.951Z,100.00
2023-03-25T15:47:47.579Z,100.00
2023-03-25T15:51:02.621Z,100.00
2023-03-25T15:54:17.287Z,100.00
2023-03-25T15:57:24.306Z,100.00
2023-03-25T16:00:28.462Z,100.00
2023-03-25T16:03:31.413Z,100.00
2023-03-25T16:06:35.296Z,100.00
2023-03-25T16:09:39.277Z,100.00
2023-03-25T16:12:42.617Z,100.00
2023-03-25T16:15:44.736Z,100.00
2023-03-25T16:18:46.832Z,100.00
2023-03-25T16:21:49.817Z,100.00
2023-03-25T16:24:51.590Z,100.00
2023-03-25T16:27:58.852Z,100.00
2023-03-25T16:31:02.928Z,100.00
2023-03-25T16:34:07.031Z,100.00
2023-03-25T16:37:10.675Z,100.00
2023-03-25T16:40:19.491Z,100.00
2023-03-25T16:43:23.616Z,100.00
2023-03-25T16:46:25.750Z,100.00
2023-03-25T16:49:29.736Z,100.00
2023-03-25T16:52:33.019Z,100.00
2023-03-25T16:55:42.237Z,100.00
2023-03-25T16:58:54.928Z,100.00
2023-03-25T17:01:59.769Z,100.00
2023-03-25T17:05:12.895Z,100.00
2023-03-25T17:08:15.945Z,100.00
2023-03-25T17:11:17.514Z,100.00
2023-03-25T17:14:22.079Z,100.00
2023-03-25T17:17:32.119Z,100.00
2023-03-25T17:20:36.884Z,100.00
2023-03-25T17:23:43.961Z,100.00
2023-03-25T17:26:54.473Z,100.00
2023-03-25T17:29:59.019Z,100.00
2023-03-25T17:33:10.186Z,100.00
2023-03-25T17:36:12.763Z,100.00
2023-03-25T17:39:17.875Z,100.00
2023-03-25T17:42:23.547Z,100.00
2023-03-25T17:45:27.468Z,100.00
2023-03-25T17:48:29.177Z,100.00
2023-03-25T17:51:32.776Z,100.00
2023-03-25T17:54:34.394Z,100.00
2023-03-25T17:57:37.493Z,100.00
2023-03-25T18:00:41.003Z,100.00
2023-03-25T18:03:46.414Z,100.00
2023-03-25T18:06:48.170Z,100.00
2023-03-25T18:09:49.750Z,100.00
2023-03-25T18:12:51.413Z,100.00
2023-03-25T18:15:54.675Z,100.00
2023-03-25T18:18:56.224Z,100.00
2023-03-25T18:22:06.935Z,100.00
2023-03-25T18:25:15.786Z,100.00
2023-03-25T18:28:17.942Z,100.00
2023-03-25T18:31:23.466Z,100.00
2023-03-25T18:34:26.109Z,100.00
2023-03-25T18:37:27.719Z,100.00
2023-03-25T18:40:31.659Z,100.00
2023-03-25T18:43:33.459Z,100.00
2023-03-25T18:46:36.847Z,100.00
2023-03-25T18:49:38.896Z,100.00
2023-03-25T18:52:40.553Z,100.00
2023-03-25T18:55:42.722Z,100.00
2023-03-25T18:58:44.258Z,100.00
2023-03-25T19:01:47.578Z,100.00
2023-03-25T19:05:00.318Z,100.00
2023-03-25T19:08:06.132Z,100.00
2023-03-25T19:11:18.991Z,100.00
2023-03-25T19:14:22.346Z,100.00
2023-03-25T19:17:25.451Z,100.00
2023-03-25T19:20:29.494Z,100.00
2023-03-25T19:23:31.476Z,100.00
2023-03-25T19:26:33.074Z,100.00
2023-03-25T19:29:34.897Z,100.00
2023-03-25T19:32:38.191Z,100.00
2023-03-25T19:35:39.911Z,100.00
2023-03-25T19:38:42.807Z,100.00
2023-03-25T19:41:46.580Z,100.00
2023-03-25T19:44:48.200Z,100.00
2023-03-25T19:47:52.421Z,100.00
2023-03-25T19:50:57.184Z,100.00
2023-03-25T19:53:58.846Z,100.00
2023-03-25T19:57:00.636Z,100.00
2023-03-25T20:00:08.179Z,100.00
2023-03-25T20:03:13.620Z,100.00
2023-03-25T20:06:15.489Z,100.00
2023-03-25T20:09:17.162Z,100.00
2023-03-25T20:12:18.685Z,100.00
2023-03-25T20:15:21.162Z,100.00
2023-03-25T20:18:24.089Z,100.00
2023-03-25T20:21:25.916Z,100.00
2023-03-25T20:24:27.573Z,100.00
2023-03-25T20:27:29.379Z,100.00
2023-03-25T20:30:33.946Z,100.00
2023-03-25T20:33:37.240Z,100.00
2023-03-25T20:36:39.078Z,100.00
2023-03-25T20:39:41.162Z,100.00
2023-03-25T20:42:44.053Z,100.00
2023-03-25T20:45:45.879Z,100.00
2023-03-25T20:48:49.014Z,100.00
2023-03-25T20:51:51.303Z,100.00
2023-03-25T20:54:53.183Z,100.00
2023-03-25T20:57:55.114Z,100.00
2023-03-25T21:00:59.140Z,100.00
2023-03-25T21:04:03.414Z,100.00
2023-03-25T21:07:06.012Z,100.00
2023-03-25T21:10:08.826Z,100.00
2023-03-25T21:13:10.858Z,100.00
2023-03-25T21:16:13.985Z,100.00
2023-03-25T21:19:19.531Z,100.00
2023-03-25T21:22:21.871Z,100.00
2023-03-25T21:25:23.478Z,100.00
2023-03-25T21:28:25.875Z,100.00
2023-03-25T21:31:28.703Z,100.00
2023-03-25T21:34:31.930Z,100.00
2023-03-25T21:37:39.054Z,100.00
2023-03-25T21:40:41.693Z,100.00
2023-03-25T21:43:44.334Z,100.00
2023-03-25T21:46:45.894Z,100.00
2023-03-25T21:49:50.246Z,100.00
2023-03-25T21:52:51.894Z,100.00
2023-03-25T21:55:55.623Z,100.00
2023-03-25T21:59:03.466Z,100.00
2023-03-25T22:02:05.883Z,100.00
2023-03-25T22:05:09.665Z,100.00
2023-03-25T22:08:12.084Z,100.00
2023-03-25T22:11:15.697Z,100.00
2023-03-25T22:14:17.318Z,100.00
2023-03-25T22:17:18.986Z,100.00
2023-03-25T22:20:22.274Z,100.00
2023-03-25T22:23:24.264Z,100.00
2023-03-25T22:26:26.920Z,100.00
2023-03-25T22:29:28.622Z,100.00
2023-03-25T22:32:30.473Z,100.00
2023-03-25T22:35:33.973Z,100.00
2023-03-25T22:38:35.809Z,100.00
2023-03-25T22:41:37.471Z,100.00
2023-03-25T22:44:40.349Z,100.00
2023-03-25T22:47:42.238Z,100.00
2023-03-25T22:50:45.528Z,100.00
2023-03-25T22:53:47.604Z,100.00
2023-03-25T22:56:52.654Z,100.00
2023-03-25T22:59:55.853Z,100.00
2023-03-25T23:02:57.684Z,100.00
2023-03-25T23:06:02.167Z,100.00
2023-03-25T23:09:04.360Z,100.00
2023-03-25T23:12:06.536Z,100.00
2023-03-25T23:15:08.319Z,100.00
2023-03-25T23:18:10.403Z,100.00
2023-03-25T23:21:14.910Z,100.00
2023-03-25T23:24:16.765Z,100.00
2023-03-25T23:27:18.461Z,100.00
2023-03-25T23:30:20.983Z,100.00
2023-03-25T23:33:22.713Z,100.00
2023-03-25T23:36:26.217Z,100.00
2023-03-25T23:39:27.983Z,100.00
2023-03-25T23:42:35.545Z,100.00
2023-03-25T23:45:37.571Z,100.00
2023-03-25T23:48:42.073Z,100.00
2023-03-25T23:51:45.578Z,100.00
2023-03-25T23:54:48.851Z,100.00
2023-03-25T23:57:50.737Z,100.00
